Pendaries, New Mexico
Current Conditions -  °F | °C
As of 2:53 PM on Sunday 21 Dec 2014 (Local Time) from KLVS Reporting Station
Clear Clear  
Wind Chill: 50°   Ceiling: Unl
Heat Index: 50°   Visibility: 10mi
Dew Point: 22°   Wind: 21mph
Humidity: 33%   Direction: 320°NW
Pressure: 29.73"   Gusts: 30mph
Location:  35.8214°N, 105.333°W
Report Text: KLVS 212153Z AUTO 32018G26KT 10SM CLR 10/M06 A2973 RMK AO2 PK WND 29036/2058 SLP026 T01001056
Loading
Personal Weather Stations






























Interactive Weather Map New forecast layout! Learn more

10-Day Weather Forecast

Advertisements
Track Severe Weather on mobile